Time;durP1;ratioP1;P1;durP2;ratioP2;P2;SDS_P1;SDS_P2;PMS_P1;PMS_P2;Temp;Humidity;BMP_temperature;BMP_pressure;BME280_temperature;BME280_humidity;BME280_pressure;Samples;Min_cycle;Max_cycle;Signal;HPM_P1;HPM_P2
2022/09/06 00:02:24;;;;;;;;;;;19.10;99.90;;;;;;5094309;28;19920;-74
2022/09/06 00:04:50;;;;;;;;;;;19.10;99.90;;;;;;5099810;28;19999;-76
2022/09/06 00:07:15;;;;;;;;;;;19.10;99.90;;;;;;5105933;28;19961;-78
2022/09/06 00:09:41;;;;;;;;;;;19.10;99.90;;;;;;5110449;28;19984;-76
2022/09/06 00:12:06;;;;;;;;;;;19.10;99.90;;;;;;5077595;28;19926;-76
2022/09/06 00:14:32;;;;;;;;;;;19.10;99.90;;;;;;5081474;28;19916;-78
2022/09/06 00:16:58;;;;;;;;;;;19.10;99.90;;;;;;5107798;28;19951;-78
2022/09/06 00:19:23;;;;;;;;;;;18.90;99.90;;;;;;5105855;28;19923;-76
2022/09/06 00:21:49;;;;;;;;;;;18.90;99.90;;;;;;5098924;28;19912;-75
2022/09/06 00:24:15;;;;;;;;;;;18.90;99.90;;;;;;5114700;28;19915;-75
2022/09/06 00:26:40;;;;;;;;;;;18.90;99.90;;;;;;5099119;28;19979;-79
2022/09/06 00:29:06;;;;;;;;;;;18.80;99.90;;;;;;5093594;28;20315;-77
2022/09/06 00:31:31;;;;;;;;;;;18.80;99.90;;;;;;5106463;28;19924;-76
2022/09/06 00:33:57;;;;;;;;;;;18.80;99.90;;;;;;5100946;28;20520;-77
2022/09/06 00:36:23;;;;;;;;;;;18.80;99.90;;;;;;5114614;28;19919;-76
2022/09/06 00:38:48;;;;;;;;;;;18.80;99.90;;;;;;5099357;28;20253;-76
2022/09/06 00:41:15;;;;;;;;;;;18.70;99.90;;;;;;5111952;28;19911;-76
2022/09/06 00:43:41;;;;;;;;;;;18.80;99.90;;;;;;5081613;28;19916;-76
2022/09/06 00:46:07;;;;;;;;;;;18.70;99.90;;;;;;5114330;28;19908;-76
2022/09/06 00:48:33;;;;;;;;;;;18.80;99.90;;;;;;5103537;28;19959;-76
2022/09/06 00:51:00;;;;;;;;;;;18.70;99.90;;;;;;5113018;28;19908;-75
2022/09/06 00:53:25;;;;;;;;;;;18.80;99.90;;;;;;5114291;28;20351;-75
2022/09/06 00:55:52;;;;;;;;;;;18.80;99.90;;;;;;5114039;28;19922;-76
2022/09/06 00:58:17;;;;;;;;;;;18.80;99.90;;;;;;5112339;28;20620;-75
2022/09/06 01:00:46;;;;;;;;;;;18.80;99.90;;;;;;5111424;28;19970;-77
2022/09/06 01:03:11;;;;;;;;;;;18.80;99.90;;;;;;5099517;28;19919;-78
2022/09/06 01:05:42;;;;;;;;;;;18.70;99.90;;;;;;5103054;28;19917;-78
2022/09/06 01:08:21;;;;;;;;;;;18.70;99.90;;;;;;5083822;28;19924;-77
2022/09/06 01:10:46;;;;;;;;;;;18.70;99.90;;;;;;5087257;28;19915;-77
2022/09/06 01:13:31;;;;;;;;;;;18.60;99.90;;;;;;5101367;28;19915;-77
2022/09/06 01:16:02;;;;;;;;;;;18.60;99.90;;;;;;5114299;28;19935;-78
2022/09/06 01:18:46;;;;;;;;;;;18.50;99.90;;;;;;5094386;28;19924;-75
2022/09/06 01:21:32;;;;;;;;;;;18.50;99.90;;;;;;5102005;28;19916;-78
2022/09/06 01:24:07;;;;;;;;;;;18.50;99.90;;;;;;5080817;28;20010;-77
2022/09/06 01:26:36;;;;;;;;;;;18.50;99.90;;;;;;5090654;28;19918;-75
2022/09/06 01:29:05;;;;;;;;;;;18.50;99.90;;;;;;5094410;28;19943;-75
2022/09/06 01:31:40;;;;;;;;;;;18.40;99.90;;;;;;5110035;28;19912;-78
2022/09/06 01:34:06;;;;;;;;;;;18.40;99.90;;;;;;5109167;28;19919;-79
2022/09/06 01:36:34;;;;;;;;;;;18.50;99.90;;;;;;5097491;28;19912;-75
2022/09/06 01:39:00;;;;;;;;;;;18.50;99.90;;;;;;5088419;28;19919;-75
2022/09/06 01:41:27;;;;;;;;;;;18.50;99.90;;;;;;5112402;28;19911;-78
2022/09/06 01:43:53;;;;;;;;;;;18.50;99.90;;;;;;5116303;28;20218;-79
2022/09/06 01:46:26;;;;;;;;;;;18.60;99.90;;;;;;5088886;28;19908;-78
2022/09/06 01:49:07;;;;;;;;;;;18.50;99.90;;;;;;5090732;28;19908;-74
2022/09/06 01:51:42;;;;;;;;;;;18.50;99.90;;;;;;5114052;28;19938;-77
2022/09/06 01:54:27;;;;;;;;;;;18.50;99.90;;;;;;5091314;28;19919;-80
2022/09/06 01:56:59;;;;;;;;;;;18.40;99.90;;;;;;5111081;28;19930;-77
2022/09/06 01:59:32;;;;;;;;;;;18.30;99.90;;;;;;5115947;28;19957;-75
2022/09/06 02:01:57;;;;;;;;;;;18.30;99.90;;;;;;5093899;28;19959;-75
2022/09/06 02:04:26;;;;;;;;;;;18.30;99.90;;;;;;5114081;28;19915;-78
2022/09/06 02:06:56;;;;;;;;;;;18.30;99.90;;;;;;5108388;28;19963;-75
2022/09/06 02:09:23;;;;;;;;;;;18.30;99.90;;;;;;5109506;28;20222;-75
2022/09/06 02:11:57;;;;;;;;;;;18.20;99.90;;;;;;5097354;28;19912;-76
2022/09/06 02:14:26;;;;;;;;;;;18.30;99.90;;;;;;5093985;28;19916;-75
2022/09/06 02:16:53;;;;;;;;;;;18.30;99.90;;;;;;5098754;28;19974;-77
2022/09/06 02:19:21;;;;;;;;;;;18.30;99.90;;;;;;5104591;28;20098;-75
2022/09/06 02:21:48;;;;;;;;;;;18.30;99.90;;;;;;5084275;28;19996;-76
2022/09/06 02:24:20;;;;;;;;;;;18.20;99.90;;;;;;5117276;28;20237;-77
2022/09/06 02:26:46;;;;;;;;;;;18.30;99.90;;;;;;5112804;28;19908;-77
2022/09/06 02:29:12;;;;;;;;;;;18.30;99.90;;;;;;5100672;28;20382;-77
2022/09/06 02:31:42;;;;;;;;;;;18.30;99.90;;;;;;5096439;28;20346;-75
2022/09/06 02:34:08;;;;;;;;;;;18.30;99.90;;;;;;5104524;28;19922;-75
2022/09/06 02:36:35;;;;;;;;;;;18.30;99.90;;;;;;5101982;28;19908;-75
2022/09/06 02:39:00;;;;;;;;;;;18.30;99.90;;;;;;5114673;27;19931;-76
2022/09/06 02:41:27;;;;;;;;;;;18.20;99.90;;;;;;5096540;28;19917;-76
2022/09/06 02:43:53;;;;;;;;;;;18.20;99.90;;;;;;5098987;28;19923;-77
2022/09/06 02:46:18;;;;;;;;;;;18.20;99.90;;;;;;5108079;28;19916;-75
2022/09/06 02:48:45;;;;;;;;;;;18.20;99.90;;;;;;5083035;28;19920;-77
2022/09/06 02:51:11;;;;;;;;;;;18.20;99.90;;;;;;5103829;28;19912;-77
2022/09/06 02:53:36;;;;;;;;;;;18.20;99.90;;;;;;5108829;28;20311;-75
2022/09/06 02:56:02;;;;;;;;;;;18.20;99.90;;;;;;5109553;28;19997;-75
2022/09/06 02:58:28;;;;;;;;;;;18.20;99.90;;;;;;5113086;28;19922;-77
2022/09/06 03:00:53;;;;;;;;;;;18.20;99.90;;;;;;5093540;28;20018;-75
2022/09/06 03:03:19;;;;;;;;;;;18.20;99.90;;;;;;5097078;28;19939;-74
2022/09/06 03:05:49;;;;;;;;;;;18.20;99.90;;;;;;5085007;28;19912;-77
2022/09/06 03:08:15;;;;;;;;;;;18.20;99.90;;;;;;5109167;28;19953;-74
2022/09/06 03:10:46;;;;;;;;;;;18.10;99.90;;;;;;5084934;28;19916;-75
2022/09/06 03:13:12;;;;;;;;;;;18.10;99.90;;;;;;5099952;28;19916;-75
2022/09/06 03:15:37;;;;;;;;;;;18.00;99.90;;;;;;5082291;28;19926;-74
2022/09/06 03:18:03;;;;;;;;;;;18.00;99.90;;;;;;5113206;28;20213;-74
2022/09/06 03:20:29;;;;;;;;;;;17.90;99.90;;;;;;5110474;28;19919;-74
2022/09/06 03:22:55;;;;;;;;;;;17.90;99.90;;;;;;5107821;27;19907;-77
2022/09/06 03:25:20;;;;;;;;;;;17.80;99.90;;;;;;5115745;28;19908;-74
2022/09/06 03:27:46;;;;;;;;;;;17.90;99.90;;;;;;5079669;28;19923;-74
2022/09/06 03:30:12;;;;;;;;;;;17.90;99.90;;;;;;5078836;28;19923;-77
2022/09/06 03:32:37;;;;;;;;;;;17.90;99.90;;;;;;5112412;28;19931;-74
2022/09/06 03:35:03;;;;;;;;;;;17.90;99.90;;;;;;5115591;28;19977;-74
2022/09/06 03:37:29;;;;;;;;;;;18.00;99.90;;;;;;5096790;28;19908;-74
2022/09/06 03:39:54;;;;;;;;;;;17.90;99.90;;;;;;5110205;28;20302;-75
2022/09/06 03:42:20;;;;;;;;;;;17.90;99.90;;;;;;5101688;28;19912;-74
2022/09/06 03:44:46;;;;;;;;;;;17.90;99.90;;;;;;5096267;28;19915;-74
2022/09/06 03:47:12;;;;;;;;;;;17.90;99.90;;;;;;5115322;28;19911;-74
2022/09/06 03:49:38;;;;;;;;;;;17.80;99.90;;;;;;5107661;28;19916;-75
2022/09/06 03:52:03;;;;;;;;;;;17.80;99.90;;;;;;5102964;28;19916;-75
2022/09/06 03:54:29;;;;;;;;;;;17.80;99.90;;;;;;5113414;28;19907;-75
2022/09/06 03:56:56;;;;;;;;;;;17.70;99.90;;;;;;5104367;28;19908;-74
2022/09/06 03:59:21;;;;;;;;;;;17.70;99.90;;;;;;5109757;28;19922;-75
2022/09/06 04:01:47;;;;;;;;;;;17.60;99.90;;;;;;5101518;28;19920;-75
2022/09/06 04:04:12;;;;;;;;;;;17.70;99.90;;;;;;5114955;28;20025;-76
2022/09/06 04:06:38;;;;;;;;;;;17.60;99.90;;;;;;5114617;28;20312;-75
2022/09/06 04:09:04;;;;;;;;;;;17.60;99.90;;;;;;5112252;28;19907;-75
2022/09/06 04:11:29;;;;;;;;;;;17.60;99.90;;;;;;5104981;28;19981;-77
2022/09/06 04:13:55;;;;;;;;;;;17.60;99.90;;;;;;5076327;28;19909;-76
2022/09/06 04:16:20;;;;;;;;;;;17.50;99.90;;;;;;5094605;28;19912;-76
2022/09/06 04:18:46;;;;;;;;;;;17.50;99.90;;;;;;5091570;28;19927;-75
2022/09/06 04:21:11;;;;;;;;;;;17.40;99.90;;;;;;5103262;28;19923;-77
2022/09/06 04:23:37;;;;;;;;;;;17.40;99.90;;;;;;5098027;28;19920;-76
2022/09/06 04:26:03;;;;;;;;;;;17.40;99.90;;;;;;5104688;28;20222;-75
2022/09/06 04:28:29;;;;;;;;;;;17.30;99.90;;;;;;5099231;28;19954;-76
2022/09/06 04:30:55;;;;;;;;;;;17.40;99.90;;;;;;5098458;28;19951;-76
2022/09/06 04:33:24;;;;;;;;;;;17.30;99.90;;;;;;5096504;28;19912;-76
2022/09/06 04:35:51;;;;;;;;;;;17.50;99.90;;;;;;5076992;28;20281;-75
2022/09/06 04:38:16;;;;;;;;;;;17.50;99.90;;;;;;5094228;28;20199;-75
2022/09/06 04:40:42;;;;;;;;;;;17.60;99.90;;;;;;5107816;28;19919;-75
2022/09/06 04:43:07;;;;;;;;;;;17.60;99.90;;;;;;5105268;28;20014;-77
2022/09/06 04:45:33;;;;;;;;;;;17.70;99.90;;;;;;5099953;28;19912;-78
2022/09/06 04:47:58;;;;;;;;;;;17.70;99.90;;;;;;5100014;28;19943;-79
2022/09/06 04:50:24;;;;;;;;;;;17.80;99.90;;;;;;5084455;28;20222;-80
2022/09/06 04:52:49;;;;;;;;;;;17.80;99.90;;;;;;5101630;28;19915;-75
2022/09/06 04:55:15;;;;;;;;;;;17.80;99.90;;;;;;5111647;28;19907;-78
2022/09/06 04:57:41;;;;;;;;;;;17.80;99.90;;;;;;5105004;28;20195;-77
2022/09/06 05:00:06;;;;;;;;;;;17.80;99.90;;;;;;5106032;28;19920;-78
2022/09/06 05:02:32;;;;;;;;;;;17.80;99.90;;;;;;5086916;28;19920;-77
2022/09/06 05:04:58;;;;;;;;;;;17.70;99.90;;;;;;5105707;28;19916;-76
2022/09/06 05:07:23;;;;;;;;;;;17.80;99.90;;;;;;5102680;28;19982;-76
2022/09/06 05:09:49;;;;;;;;;;;17.80;99.90;;;;;;5104676;28;20010;-77
2022/09/06 05:12:14;;;;;;;;;;;17.80;99.90;;;;;;5110639;28;20315;-76
2022/09/06 05:14:40;;;;;;;;;;;17.70;99.90;;;;;;5105356;28;19924;-76
2022/09/06 05:17:05;;;;;;;;;;;17.70;99.90;;;;;;5086392;28;19930;-76
2022/09/06 05:19:31;;;;;;;;;;;17.70;99.90;;;;;;5108153;28;19920;-75
2022/09/06 05:21:57;;;;;;;;;;;17.70;99.90;;;;;;5103762;28;19930;-77
2022/09/06 05:24:22;;;;;;;;;;;17.70;99.90;;;;;;5109006;28;19916;-75
2022/09/06 05:26:48;;;;;;;;;;;17.70;99.90;;;;;;5104009;28;19937;-75
2022/09/06 05:29:13;;;;;;;;;;;17.70;99.90;;;;;;5102558;28;20241;-76
2022/09/06 05:31:39;;;;;;;;;;;17.70;99.90;;;;;;5100084;28;19990;-75
2022/09/06 05:34:05;;;;;;;;;;;17.60;99.90;;;;;;5099261;28;19918;-76
2022/09/06 05:36:30;;;;;;;;;;;17.60;99.90;;;;;;5101104;28;19995;-76
2022/09/06 05:38:56;;;;;;;;;;;17.60;99.90;;;;;;5098167;28;20302;-76
2022/09/06 05:41:22;;;;;;;;;;;17.60;99.90;;;;;;5089593;28;19919;-76
2022/09/06 05:43:48;;;;;;;;;;;17.60;99.90;;;;;;5107109;28;19920;-74
2022/09/06 05:46:14;;;;;;;;;;;17.70;99.90;;;;;;5100272;28;19913;-75
2022/09/06 05:48:40;;;;;;;;;;;17.70;99.90;;;;;;5106003;28;19912;-74
2022/09/06 05:51:07;;;;;;;;;;;17.80;99.90;;;;;;5086204;28;19921;-75
2022/09/06 05:53:33;;;;;;;;;;;17.70;99.90;;;;;;5100282;28;20375;-74
2022/09/06 05:55:59;;;;;;;;;;;17.70;99.90;;;;;;5086308;28;19912;-74
2022/09/06 05:58:24;;;;;;;;;;;17.70;99.90;;;;;;5097160;28;19912;-74
2022/09/06 06:00:50;;;;;;;;;;;17.70;99.90;;;;;;5096643;28;19916;-74
2022/09/06 06:03:15;;;;;;;;;;;17.60;99.90;;;;;;5104028;28;19920;-75
2022/09/06 06:05:45;;;;;;;;;;;17.60;99.90;;;;;;5086327;28;20446;-74
2022/09/06 06:08:10;;;;;;;;;;;17.70;99.90;;;;;;5101773;28;19979;-75
2022/09/06 06:10:38;;;;;;;;;;;17.70;99.90;;;;;;5112746;28;20382;-76
2022/09/06 06:13:03;;;;;;;;;;;17.70;99.90;;;;;;5115730;28;20065;-76
2022/09/06 06:15:31;;;;;;;;;;;17.70;99.90;;;;;;5098429;28;19998;-75
2022/09/06 06:17:56;;;;;;;;;;;17.80;99.90;;;;;;5096676;28;20581;-76
2022/09/06 06:20:22;;;;;;;;;;;17.80;99.90;;;;;;5097489;28;19920;-75
2022/09/06 06:22:47;;;;;;;;;;;17.90;99.90;;;;;;5101010;28;19916;-75
2022/09/06 06:25:13;;;;;;;;;;;17.90;99.90;;;;;;5080436;28;19923;-75
2022/09/06 06:27:39;;;;;;;;;;;17.90;99.90;;;;;;5103031;28;19908;-74
2022/09/06 06:30:04;;;;;;;;;;;18.00;99.90;;;;;;5100503;28;19907;-75
2022/09/06 06:32:30;;;;;;;;;;;18.10;99.90;;;;;;5096482;28;19909;-75
2022/09/06 06:34:56;;;;;;;;;;;18.10;99.90;;;;;;5102720;28;19911;-73
2022/09/06 06:37:21;;;;;;;;;;;18.20;99.90;;;;;;5079323;28;19920;-74
2022/09/06 06:39:47;;;;;;;;;;;18.20;99.90;;;;;;5100937;28;19920;-75
2022/09/06 06:42:14;;;;;;;;;;;18.30;99.90;;;;;;5089252;28;20298;-74
2022/09/06 06:44:40;;;;;;;;;;;18.40;99.90;;;;;;5102890;28;20360;-76
2022/09/06 06:47:06;;;;;;;;;;;18.40;99.90;;;;;;5097097;28;19913;-76
2022/09/06 06:49:31;;;;;;;;;;;18.50;99.90;;;;;;5096109;28;19909;-74
2022/09/06 06:51:57;;;;;;;;;;;18.50;99.90;;;;;;5101525;28;19919;-73
2022/09/06 06:54:22;;;;;;;;;;;18.60;99.90;;;;;;5099342;28;19916;-75
2022/09/06 06:56:48;;;;;;;;;;;18.70;99.90;;;;;;5106205;28;19908;-75
2022/09/06 06:59:13;;;;;;;;;;;19.00;99.90;;;;;;5098376;28;20303;-75
2022/09/06 07:01:39;;;;;;;;;;;19.40;99.90;;;;;;5101533;28;20315;-75
2022/09/06 07:04:07;;;;;;;;;;;19.70;99.90;;;;;;5087277;28;19912;-75
2022/09/06 07:06:59;;;;;;;;;;;20.00;99.90;;;;;;5111781;28;20215;-75
2022/09/06 07:09:25;;;;;;;;;;;20.40;99.90;;;;;;5106774;28;19912;-76
2022/09/06 07:11:51;;;;;;;;;;;21.10;99.90;;;;;;5112057;28;19993;-74
2022/09/06 07:14:17;;;;;;;;;;;21.90;99.90;;;;;;5113727;28;19951;-74
2022/09/06 07:16:43;;;;;;;;;;;22.80;99.90;;;;;;5109386;28;19923;-75
2022/09/06 07:19:08;;;;;;;;;;;23.70;99.90;;;;;;5116052;28;19973;-73
2022/09/06 07:21:34;;;;;;;;;;;24.10;99.90;;;;;;5111233;28;20252;-74
2022/09/06 07:24:00;;;;;;;;;;;24.30;99.90;;;;;;5104580;28;19918;-75
2022/09/06 07:26:27;;;;;;;;;;;24.50;99.90;;;;;;5082341;28;20303;-75
2022/09/06 07:28:57;;;;;;;;;;;24.70;99.90;;;;;;5114246;28;19924;-75
2022/09/06 07:31:23;;;;;;;;;;;24.50;99.90;;;;;;5107607;28;20272;-76
2022/09/06 07:33:49;;;;;;;;;;;24.30;99.90;;;;;;5078169;28;19912;-77
2022/09/06 07:36:14;;;;;;;;;;;24.10;99.90;;;;;;5103088;28;19907;-76
2022/09/06 07:38:40;;;;;;;;;;;23.90;99.90;;;;;;5104550;28;20272;-75
2022/09/06 07:41:07;;;;;;;;;;;23.70;99.90;;;;;;5103107;28;20344;-75
2022/09/06 07:43:33;;;;;;;;;;;23.70;99.90;;;;;;5102486;28;20492;-75
2022/09/06 07:46:00;;;;;;;;;;;23.70;99.90;;;;;;5085122;28;19943;-75
2022/09/06 07:48:27;;;;;;;;;;;23.70;99.90;;;;;;5097240;28;19927;-74
2022/09/06 07:50:52;;;;;;;;;;;23.70;99.90;;;;;;5082273;28;20212;-75
2022/09/06 07:53:18;;;;;;;;;;;23.70;99.90;;;;;;5086962;28;19915;-74
2022/09/06 07:55:43;;;;;;;;;;;23.80;99.90;;;;;;5100818;28;19919;-76
2022/09/06 07:58:09;;;;;;;;;;;23.80;99.90;;;;;;5095280;28;20323;-75
2022/09/06 08:00:37;;;;;;;;;;;23.80;99.90;;;;;;5096387;28;20010;-72
2022/09/06 08:03:02;;;;;;;;;;;23.70;99.90;;;;;;5096104;28;19943;-75
2022/09/06 08:05:28;;;;;;;;;;;23.70;99.90;;;;;;5095035;28;19966;-77
2022/09/06 08:07:53;;;;;;;;;;;23.80;99.90;;;;;;5095520;28;19908;-75
2022/09/06 08:10:19;;;;;;;;;;;24.00;99.90;;;;;;5086300;28;19916;-75
2022/09/06 08:12:45;;;;;;;;;;;24.70;99.90;;;;;;5077063;28;19951;-74
2022/09/06 08:15:10;;;;;;;;;;;25.20;99.90;;;;;;5095051;28;19920;-76
2022/09/06 08:17:36;;;;;;;;;;;25.50;99.90;;;;;;5095981;28;19927;-75
2022/09/06 08:20:02;;;;;;;;;;;25.90;99.90;;;;;;5097151;28;19924;-75
2022/09/06 08:22:31;;;;;;;;;;;26.40;99.90;;;;;;5096383;28;19927;-76
2022/09/06 08:24:57;;;;;;;;;;;26.60;99.90;;;;;;5095041;28;19916;-76
2022/09/06 08:27:23;;;;;;;;;;;26.70;99.90;;;;;;5095980;28;19965;-76
2022/09/06 08:29:48;;;;;;;;;;;26.40;99.90;;;;;;5098539;28;19919;-74
2022/09/06 08:32:14;;;;;;;;;;;26.10;99.90;;;;;;5093615;28;19916;-75
2022/09/06 08:34:39;;;;;;;;;;;25.90;99.90;;;;;;5095748;28;20266;-75
2022/09/06 08:37:05;;;;;;;;;;;25.70;99.90;;;;;;5085976;28;19919;-75
2022/09/06 08:39:30;;;;;;;;;;;25.40;99.90;;;;;;5095645;28;19920;-76
2022/09/06 08:42:06;;;;;;;;;;;25.20;99.90;;;;;;5093747;28;20000;-75
2022/09/06 08:44:34;;;;;;;;;;;25.10;99.90;;;;;;5085459;28;19920;-80
2022/09/06 08:47:06;;;;;;;;;;;25.10;99.90;;;;;;5089567;28;19943;-77
2022/09/06 08:49:41;;;;;;;;;;;25.20;99.90;;;;;;5090022;28;19985;-75
2022/09/06 08:52:10;;;;;;;;;;;25.30;99.90;;;;;;5101421;28;20242;-76
2022/09/06 08:54:44;;;;;;;;;;;25.40;99.90;;;;;;5108070;28;19912;-76
2022/09/06 08:57:13;;;;;;;;;;;25.40;99.90;;;;;;5082779;28;19912;-77
2022/09/06 08:59:39;;;;;;;;;;;25.40;99.90;;;;;;5080567;28;19916;-75
2022/09/06 09:02:11;;;;;;;;;;;25.60;99.90;;;;;;5096847;28;20238;-75
2022/09/06 09:04:39;;;;;;;;;;;25.60;99.90;;;;;;5080120;28;20292;-76
2022/09/06 09:07:12;;;;;;;;;;;25.20;99.90;;;;;;5098788;28;19920;-75
2022/09/06 09:09:38;;;;;;;;;;;24.80;99.90;;;;;;5102059;28;19955;-75
2022/09/06 09:12:04;;;;;;;;;;;24.70;99.90;;;;;;5098913;28;19963;-77
2022/09/06 09:14:34;;;;;;;;;;;25.00;99.90;;;;;;5078433;28;19913;-74
2022/09/06 09:17:04;;;;;;;;;;;25.20;99.90;;;;;;5076349;28;20332;-74
2022/09/06 09:19:32;;;;;;;;;;;25.50;99.90;;;;;;5103066;28;19927;-77
2022/09/06 09:21:57;;;;;;;;;;;25.90;99.90;;;;;;5096597;28;20443;-76
2022/09/06 09:24:23;;;;;;;;;;;26.10;99.90;;;;;;5096600;28;19918;-77
2022/09/06 09:26:52;;;;;;;;;;;26.40;99.90;;;;;;5106534;28;20199;-76
2022/09/06 09:29:17;;;;;;;;;;;26.80;99.90;;;;;;5102034;28;19923;-74
2022/09/06 09:31:48;;;;;;;;;;;27.10;99.90;;;;;;5082452;28;19908;-79
2022/09/06 09:34:34;;;;;;;;;;;27.50;99.90;;;;;;5095942;28;19938;-77
2022/09/06 09:37:16;;;;;;;;;;;27.50;99.90;;;;;;5078553;28;20227;-77
2022/09/06 09:39:42;;;;;;;;;;;27.20;99.90;;;;;;5082660;28;19916;-77
2022/09/06 09:42:08;;;;;;;;;;;27.20;99.90;;;;;;5096987;28;19926;-75
2022/09/06 09:44:35;;;;;;;;;;;27.00;99.90;;;;;;5080001;28;19911;-76
2022/09/06 09:47:08;;;;;;;;;;;27.00;99.90;;;;;;5104513;28;19961;-76
2022/09/06 09:49:34;;;;;;;;;;;27.00;99.90;;;;;;5088090;28;20334;-77
2022/09/06 09:52:03;;;;;;;;;;;27.10;99.90;;;;;;5102153;28;19912;-75
2022/09/06 09:54:29;;;;;;;;;;;27.40;99.90;;;;;;5105701;28;19912;-76
2022/09/06 09:56:55;;;;;;;;;;;27.50;99.90;;;;;;5109534;28;19915;-77
2022/09/06 09:59:40;;;;;;;;;;;27.70;99.90;;;;;;5109887;28;19920;-76
2022/09/06 10:02:24;;;;;;;;;;;27.70;99.90;;;;;;5112225;28;20002;-78
2022/09/06 10:05:00;;;;;;;;;;;27.70;99.90;;;;;;5107677;28;20378;-77
2022/09/06 10:07:26;;;;;;;;;;;27.80;99.90;;;;;;5110530;27;20401;-77
2022/09/06 10:10:03;;;;;;;;;;;27.60;99.90;;;;;;5101407;28;19920;-75
2022/09/06 10:12:30;;;;;;;;;;;27.60;99.90;;;;;;5108353;28;20223;-75
2022/09/06 10:14:56;;;;;;;;;;;27.50;99.80;;;;;;5090440;28;19912;-78
2022/09/06 10:17:30;;;;;;;;;;;27.40;99.90;;;;;;5099756;28;19924;-77
2022/09/06 10:19:57;;;;;;;;;;;27.50;99.90;;;;;;5086989;28;19916;-77
2022/09/06 10:22:27;;;;;;;;;;;27.70;99.90;;;;;;5084347;28;19920;-79
2022/09/06 10:25:05;;;;;;;;;;;27.90;99.90;;;;;;5103604;28;20295;-77
2022/09/06 10:27:32;;;;;;;;;;;28.00;99.20;;;;;;5096407;28;19923;-77
2022/09/06 10:29:57;;;;;;;;;;;28.00;99.80;;;;;;5104078;28;20479;-77
2022/09/06 10:32:46;;;;;;;;;;;27.90;99.60;;;;;;5104093;28;19912;-78
2022/09/06 10:35:19;;;;;;;;;;;27.80;99.30;;;;;;5099840;28;20332;-76
2022/09/06 10:38:04;;;;;;;;;;;28.00;99.90;;;;;;5099483;28;20306;-78
2022/09/06 10:40:29;;;;;;;;;;;28.30;99.90;;;;;;5096581;28;19924;-76
2022/09/06 10:42:56;;;;;;;;;;;28.30;98.30;;;;;;5103329;28;19912;-80
2022/09/06 10:45:25;;;;;;;;;;;28.10;98.80;;;;;;5105534;28;20007;-78
2022/09/06 10:47:55;;;;;;;;;;;28.00;99.90;;;;;;5109382;27;19915;-78
2022/09/06 10:50:39;;;;;;;;;;;28.10;99.70;;;;;;5097142;27;19912;-78
2022/09/06 10:53:11;;;;;;;;;;;28.20;99.80;;;;;;5087032;28;19961;-77
2022/09/06 10:55:39;;;;;;;;;;;28.50;98.00;;;;;;5103411;28;19912;-78
2022/09/06 10:58:05;;;;;;;;;;;28.50;98.30;;;;;;5080370;28;19923;-74
2022/09/06 11:00:36;;;;;;;;;;;28.60;98.20;;;;;;5101308;28;19999;-77
2022/09/06 11:03:07;;;;;;;;;;;28.60;98.40;;;;;;5100265;28;19915;-76
2022/09/06 11:05:36;;;;;;;;;;;28.50;98.30;;;;;;5081483;28;20214;-75
2022/09/06 11:08:02;;;;;;;;;;;28.50;98.60;;;;;;5103110;28;20513;-78
2022/09/06 11:10:33;;;;;;;;;;;28.40;99.60;;;;;;5103796;28;19963;-76
2022/09/06 11:13:01;;;;;;;;;;;28.20;99.20;;;;;;5106779;28;19916;-76
2022/09/06 11:15:31;;;;;;;;;;;28.30;99.90;;;;;;5090905;28;20011;-76
2022/09/06 11:18:00;;;;;;;;;;;28.30;99.50;;;;;;5106547;28;19963;-76
2022/09/06 11:20:28;;;;;;;;;;;28.30;99.60;;;;;;5103614;28;19924;-75
2022/09/06 11:23:03;;;;;;;;;;;28.30;99.90;;;;;;5110564;28;19912;-77
2022/09/06 11:25:44;;;;;;;;;;;28.10;99.10;;;;;;5107212;28;19914;-77
2022/09/06 11:28:14;;;;;;;;;;;27.70;99.00;;;;;;5105700;28;20252;-77
2022/09/06 11:30:42;;;;;;;;;;;27.50;99.90;;;;;;5101851;28;19919;-76
2022/09/06 11:33:16;;;;;;;;;;;27.60;99.90;;;;;;5078121;28;19924;-75
2022/09/06 11:35:41;;;;;;;;;;;27.70;99.90;;;;;;5075477;28;20307;-74
2022/09/06 11:38:27;;;;;;;;;;;28.00;99.90;;;;;;5089645;28;19923;-76
2022/09/06 11:41:03;;;;;;;;;;;28.20;99.90;;;;;;5090185;28;19919;-77
2022/09/06 11:43:41;;;;;;;;;;;28.30;99.80;;;;;;5106066;28;19923;-75
2022/09/06 11:46:07;;;;;;;;;;;28.40;99.90;;;;;;5108152;28;19915;-75
2022/09/06 11:48:35;;;;;;;;;;;28.50;99.90;;;;;;5098569;28;19968;-75
2022/09/06 11:51:00;;;;;;;;;;;28.50;99.40;;;;;;5103596;28;19961;-75
2022/09/06 11:53:26;;;;;;;;;;;28.50;99.50;;;;;;5108752;28;19908;-75
2022/09/06 11:56:00;;;;;;;;;;;28.60;99.90;;;;;;5100113;28;20252;-79
2022/09/06 11:58:55;;;;;;;;;;;28.60;99.10;;;;;;5082263;28;20303;-74
2022/09/06 12:01:21;;;;;;;;;;;28.70;99.40;;;;;;5056581;28;19917;-76
2022/09/06 12:03:47;;;;;;;;;;;28.70;99.40;;;;;;5091155;28;20193;-77
2022/09/06 12:06:15;;;;;;;;;;;28.80;99.60;;;;;;5103557;28;20257;-74
2022/09/06 12:08:42;;;;;;;;;;;28.90;99.10;;;;;;5085505;28;19935;-76
2022/09/06 12:11:26;;;;;;;;;;;28.80;98.60;;;;;;5103255;28;19915;-75
2022/09/06 12:13:53;;;;;;;;;;;28.60;99.20;;;;;;5096699;28;19926;-75
2022/09/06 12:16:19;;;;;;;;;;;28.60;99.20;;;;;;5105294;28;19999;-75
2022/09/06 12:18:47;;;;;;;;;;;28.50;99.60;;;;;;5096939;28;20003;-75
2022/09/06 12:21:32;;;;;;;;;;;28.60;99.50;;;;;;5099967;28;20572;-75
2022/09/06 12:23:58;;;;;;;;;;;28.60;99.20;;;;;;5105701;28;19919;-75
2022/09/06 12:26:42;;;;;;;;;;;28.70;99.90;;;;;;5105238;28;19919;-75
2022/09/06 12:29:09;;;;;;;;;;;28.80;99.70;;;;;;5085515;28;19916;-76
2022/09/06 12:31:55;;;;;;;;;;;28.90;99.40;;;;;;5086007;28;19916;-75
2022/09/06 12:34:24;;;;;;;;;;;29.00;99.20;;;;;;5106504;28;19955;-76
2022/09/06 12:36:53;;;;;;;;;;;29.00;98.70;;;;;;5096003;28;19957;-75
2022/09/06 12:39:21;;;;;;;;;;;29.20;99.30;;;;;;5097251;28;19924;-75
2022/09/06 12:41:58;;;;;;;;;;;29.30;98.90;;;;;;5098711;28;19941;-78
2022/09/06 12:44:34;;;;;;;;;;;29.30;98.40;;;;;;5096363;28;19919;-76
2022/09/06 12:47:11;;;;;;;;;;;29.20;98.40;;;;;;5093588;28;19998;-75
2022/09/06 12:49:37;;;;;;;;;;;29.20;98.70;;;;;;5071448;28;19943;-76
2022/09/06 12:52:18;;;;;;;;;;;29.10;98.50;;;;;;5097262;28;20005;-73
2022/09/06 12:54:47;;;;;;;;;;;29.00;97.90;;;;;;5094350;28;19935;-73
2022/09/06 12:57:18;;;;;;;;;;;29.00;98.50;;;;;;5093064;28;19912;-75
2022/09/06 12:59:56;;;;;;;;;;;28.90;98.10;;;;;;5076807;28;19920;-76
2022/09/06 13:02:48;;;;;;;;;;;29.00;99.20;;;;;;5085365;28;19923;-78
2022/09/06 13:05:14;;;;;;;;;;;29.00;99.00;;;;;;5086190;28;19919;-78
2022/09/06 13:07:44;;;;;;;;;;;29.00;98.30;;;;;;5098295;28;19943;-76
2022/09/06 13:10:12;;;;;;;;;;;29.10;98.10;;;;;;5083709;28;20299;-76
2022/09/06 13:12:41;;;;;;;;;;;29.20;98.40;;;;;;5084518;28;19916;-76
2022/09/06 13:15:10;;;;;;;;;;;29.20;98.70;;;;;;5085917;28;19916;-76
2022/09/06 13:17:37;;;;;;;;;;;29.20;98.30;;;;;;5081366;28;19920;-75
2022/09/06 13:20:13;;;;;;;;;;;29.30;98.30;;;;;;5096469;28;20014;-78
2022/09/06 13:22:43;;;;;;;;;;;29.30;97.90;;;;;;5100467;28;20398;-76
2022/09/06 13:25:22;;;;;;;;;;;29.40;98.10;;;;;;5100786;28;20210;-75
2022/09/06 13:27:49;;;;;;;;;;;29.50;97.90;;;;;;5099130;28;20330;-76
2022/09/06 13:30:33;;;;;;;;;;;29.60;97.10;;;;;;5104511;28;19916;-76
2022/09/06 13:32:59;;;;;;;;;;;29.60;96.50;;;;;;5105786;28;20030;-76
2022/09/06 13:35:28;;;;;;;;;;;29.60;97.50;;;;;;5106131;28;20014;-76
2022/09/06 13:38:12;;;;;;;;;;;29.50;96.70;;;;;;5085494;28;19932;-76
2022/09/06 13:40:41;;;;;;;;;;;29.40;96.10;;;;;;5103241;28;19920;-76
2022/09/06 13:43:13;;;;;;;;;;;29.00;96.10;;;;;;5103719;28;19920;-77
2022/09/06 13:45:38;;;;;;;;;;;28.60;96.60;;;;;;5100458;28;19924;-76
2022/09/06 13:48:04;;;;;;;;;;;28.40;96.90;;;;;;5103375;28;19964;-76
2022/09/06 13:50:30;;;;;;;;;;;28.50;97.80;;;;;;5092709;28;19916;-76
2022/09/06 13:52:57;;;;;;;;;;;28.60;97.90;;;;;;5099667;28;20397;-75
2022/09/06 13:55:23;;;;;;;;;;;28.80;98.60;;;;;;5084274;28;19923;-76
2022/09/06 13:57:49;;;;;;;;;;;28.80;97.50;;;;;;5087660;28;19920;-76
2022/09/06 14:00:16;;;;;;;;;;;28.80;97.70;;;;;;5103879;28;20331;-75
2022/09/06 14:02:42;;;;;;;;;;;28.70;98.10;;;;;;5110295;28;20377;-75
2022/09/06 14:05:08;;;;;;;;;;;28.50;97.80;;;;;;5102662;28;19973;-76
2022/09/06 14:07:33;;;;;;;;;;;28.50;97.80;;;;;;5099914;28;19912;-76
2022/09/06 14:10:00;;;;;;;;;;;28.40;98.30;;;;;;5085932;28;19916;-76
2022/09/06 14:12:26;;;;;;;;;;;28.50;97.80;;;;;;5087143;28;19981;-76
2022/09/06 14:14:51;;;;;;;;;;;28.60;98.60;;;;;;5086116;28;19912;-74
2022/09/06 14:17:17;;;;;;;;;;;28.40;97.30;;;;;;5105045;28;19920;-74
2022/09/06 14:19:42;;;;;;;;;;;28.40;97.10;;;;;;5105520;28;20466;-76
2022/09/06 14:22:08;;;;;;;;;;;28.30;97.30;;;;;;5083637;28;19978;-75
2022/09/06 14:24:34;;;;;;;;;;;28.20;96.90;;;;;;5087119;28;19912;-76